sensor_id;sensor_type;location;lat;lon;timestamp;P1;durP1;ratioP1;P2;durP2;ratioP2
76995;SDS011;65929;49.062;10.338;2023-06-10T00:00:15;3.53;;;3.22;;
76995;SDS011;65929;49.062;10.338;2023-06-10T00:01:17;5.57;;;3.25;;
76995;SDS011;65929;49.062;10.338;2023-06-10T00:02:18;3.65;;;3.08;;
76995;SDS011;65929;49.062;10.338;2023-06-10T00:03:19;4.13;;;2.92;;
76995;SDS011;65929;49.062;10.338;2023-06-10T00:04:20;4.13;;;3.38;;
76995;SDS011;65929;49.062;10.338;2023-06-10T00:05:21;4.05;;;2.97;;
76995;SDS011;65929;49.062;10.338;2023-06-10T00:06:22;5.75;;;3.58;;
76995;SDS011;65929;49.062;10.338;2023-06-10T00:07:24;5.60;;;3.40;;
76995;SDS011;65929;49.062;10.338;2023-06-10T00:08:25;4.65;;;3.13;;
76995;SDS011;65929;49.062;10.338;2023-06-10T00:09:26;4.93;;;3.40;;
76995;SDS011;65929;49.062;10.338;2023-06-10T00:10:29;5.15;;;3.60;;
76995;SDS011;65929;49.062;10.338;2023-06-10T00:11:31;3.90;;;2.90;;
76995;SDS011;65929;49.062;10.338;2023-06-10T00:12:33;4.38;;;3.10;;
76995;SDS011;65929;49.062;10.338;2023-06-10T00:13:37;4.35;;;3.15;;
76995;SDS011;65929;49.062;10.338;2023-06-10T00:14:38;5.40;;;3.50;;
76995;SDS011;65929;49.062;10.338;2023-06-10T00:15:43;4.30;;;3.90;;
76995;SDS011;65929;49.062;10.338;2023-06-10T00:16:43;4.05;;;3.58;;
76995;SDS011;65929;49.062;10.338;2023-06-10T00:17:45;4.65;;;3.30;;
76995;SDS011;65929;49.062;10.338;2023-06-10T00:18:46;3.58;;;2.90;;
76995;SDS011;65929;49.062;10.338;2023-06-10T00:19:47;3.85;;;3.15;;
76995;SDS011;65929;49.062;10.338;2023-06-10T00:20:50;4.18;;;3.15;;
76995;SDS011;65929;49.062;10.338;2023-06-10T00:21:53;3.58;;;2.92;;
76995;SDS011;65929;49.062;10.338;2023-06-10T00:22:54;4.07;;;3.00;;
76995;SDS011;65929;49.062;10.338;2023-06-10T00:23:55;6.20;;;3.70;;
76995;SDS011;65929;49.062;10.338;2023-06-10T00:24:56;3.17;;;2.88;;
76995;SDS011;65929;49.062;10.338;2023-06-10T00:25:57;3.38;;;2.88;;
76995;SDS011;65929;49.062;10.338;2023-06-10T00:27:00;5.22;;;3.63;;
76995;SDS011;65929;49.062;10.338;2023-06-10T00:28:01;4.40;;;3.08;;
76995;SDS011;65929;49.062;10.338;2023-06-10T00:29:02;4.50;;;3.15;;
76995;SDS011;65929;49.062;10.338;2023-06-10T00:30:03;5.38;;;3.42;;
76995;SDS011;65929;49.062;10.338;2023-06-10T00:31:07;3.63;;;3.20;;
76995;SDS011;65929;49.062;10.338;2023-06-10T00:32:08;3.65;;;2.75;;
76995;SDS011;65929;49.062;10.338;2023-06-10T00:33:09;4.07;;;3.60;;
76995;SDS011;65929;49.062;10.338;2023-06-10T00:34:10;4.47;;;3.42;;
76995;SDS011;65929;49.062;10.338;2023-06-10T00:35:12;3.40;;;2.92;;
76995;SDS011;65929;49.062;10.338;2023-06-10T00:36:12;4.97;;;3.20;;
76995;SDS011;65929;49.062;10.338;2023-06-10T00:37:13;3.78;;;3.28;;
76995;SDS011;65929;49.062;10.338;2023-06-10T00:38:14;4.13;;;3.20;;
76995;SDS011;65929;49.062;10.338;2023-06-10T00:39:15;3.95;;;2.85;;
76995;SDS011;65929;49.062;10.338;2023-06-10T00:40:16;3.55;;;2.80;;
76995;SDS011;65929;49.062;10.338;2023-06-10T00:41:17;3.92;;;3.10;;
76995;SDS011;65929;49.062;10.338;2023-06-10T00:42:20;3.85;;;3.45;;
76995;SDS011;65929;49.062;10.338;2023-06-10T00:43:24;4.78;;;3.08;;
76995;SDS011;65929;49.062;10.338;2023-06-10T00:44:25;4.55;;;2.95;;
76995;SDS011;65929;49.062;10.338;2023-06-10T00:45:26;4.82;;;3.28;;
76995;SDS011;65929;49.062;10.338;2023-06-10T00:46:27;4.10;;;2.83;;
76995;SDS011;65929;49.062;10.338;2023-06-10T00:47:28;4.18;;;3.22;;
76995;SDS011;65929;49.062;10.338;2023-06-10T00:48:30;4.38;;;2.85;;
76995;SDS011;65929;49.062;10.338;2023-06-10T00:49:31;4.15;;;2.75;;
76995;SDS011;65929;49.062;10.338;2023-06-10T00:50:32;3.60;;;2.90;;
76995;SDS011;65929;49.062;10.338;2023-06-10T00:51:34;4.35;;;2.97;;
76995;SDS011;65929;49.062;10.338;2023-06-10T00:52:36;4.50;;;3.13;;
76995;SDS011;65929;49.062;10.338;2023-06-10T00:53:39;3.47;;;2.70;;
76995;SDS011;65929;49.062;10.338;2023-06-10T00:54:41;4.00;;;2.88;;
76995;SDS011;65929;49.062;10.338;2023-06-10T00:55:43;4.35;;;3.30;;
76995;SDS011;65929;49.062;10.338;2023-06-10T00:56:44;4.10;;;2.90;;
76995;SDS011;65929;49.062;10.338;2023-06-10T00:57:48;3.72;;;3.03;;
76995;SDS011;65929;49.062;10.338;2023-06-10T00:58:51;3.92;;;2.83;;
76995;SDS011;65929;49.062;10.338;2023-06-10T00:59:52;4.20;;;3.13;;
76995;SDS011;65929;49.062;10.338;2023-06-10T01:00:54;5.32;;;3.15;;
76995;SDS011;65929;49.062;10.338;2023-06-10T01:01:56;4.72;;;3.67;;
76995;SDS011;65929;49.062;10.338;2023-06-10T01:02:57;4.97;;;3.30;;
76995;SDS011;65929;49.062;10.338;2023-06-10T01:03:58;4.80;;;2.95;;
76995;SDS011;65929;49.062;10.338;2023-06-10T01:04:59;5.18;;;3.05;;
76995;SDS011;65929;49.062;10.338;2023-06-10T01:06:03;4.45;;;3.15;;
76995;SDS011;65929;49.062;10.338;2023-06-10T01:07:14;4.05;;;3.05;;
76995;SDS011;65929;49.062;10.338;2023-06-10T01:08:23;3.75;;;2.78;;
76995;SDS011;65929;49.062;10.338;2023-06-10T01:09:36;4.20;;;2.90;;
76995;SDS011;65929;49.062;10.338;2023-06-10T01:10:43;3.78;;;3.05;;
76995;SDS011;65929;49.062;10.338;2023-06-10T01:11:51;3.22;;;2.75;;
76995;SDS011;65929;49.062;10.338;2023-06-10T01:12:59;4.53;;;2.83;;
76995;SDS011;65929;49.062;10.338;2023-06-10T01:14:07;3.60;;;2.92;;
76995;SDS011;65929;49.062;10.338;2023-06-10T01:15:09;4.03;;;2.95;;
76995;SDS011;65929;49.062;10.338;2023-06-10T01:16:10;3.80;;;2.88;;
76995;SDS011;65929;49.062;10.338;2023-06-10T01:17:12;3.70;;;3.22;;
76995;SDS011;65929;49.062;10.338;2023-06-10T01:18:16;4.28;;;3.15;;
76995;SDS011;65929;49.062;10.338;2023-06-10T01:19:17;4.30;;;2.78;;
76995;SDS011;65929;49.062;10.338;2023-06-10T01:20:19;4.40;;;3.28;;
76995;SDS011;65929;49.062;10.338;2023-06-10T01:21:21;5.07;;;3.20;;
76995;SDS011;65929;49.062;10.338;2023-06-10T01:22:26;4.00;;;3.05;;
76995;SDS011;65929;49.062;10.338;2023-06-10T01:23:36;4.05;;;2.90;;
76995;SDS011;65929;49.062;10.338;2023-06-10T01:24:37;5.25;;;3.30;;
76995;SDS011;65929;49.062;10.338;2023-06-10T01:25:40;4.38;;;3.25;;
76995;SDS011;65929;49.062;10.338;2023-06-10T01:26:46;4.05;;;2.90;;
76995;SDS011;65929;49.062;10.338;2023-06-10T01:27:50;3.97;;;3.28;;
76995;SDS011;65929;49.062;10.338;2023-06-10T01:28:51;4.18;;;3.40;;
76995;SDS011;65929;49.062;10.338;2023-06-10T01:29:59;4.60;;;3.22;;
76995;SDS011;65929;49.062;10.338;2023-06-10T01:31:06;4.82;;;2.85;;
76995;SDS011;65929;49.062;10.338;2023-06-10T01:32:15;4.72;;;3.17;;
76995;SDS011;65929;49.062;10.338;2023-06-10T01:33:20;4.03;;;2.92;;
76995;SDS011;65929;49.062;10.338;2023-06-10T01:34:25;3.78;;;3.33;;
76995;SDS011;65929;49.062;10.338;2023-06-10T01:35:27;4.72;;;3.50;;
76995;SDS011;65929;49.062;10.338;2023-06-10T01:36:32;5.00;;;3.15;;
76995;SDS011;65929;49.062;10.338;2023-06-10T01:37:35;5.05;;;3.70;;
76995;SDS011;65929;49.062;10.338;2023-06-10T01:38:39;3.80;;;3.10;;
76995;SDS011;65929;49.062;10.338;2023-06-10T01:39:43;5.00;;;3.35;;
76995;SDS011;65929;49.062;10.338;2023-06-10T01:40:47;4.45;;;3.22;;
76995;SDS011;65929;49.062;10.338;2023-06-10T01:41:49;4.45;;;3.33;;
76995;SDS011;65929;49.062;10.338;2023-06-10T01:42:52;3.80;;;3.00;;
76995;SDS011;65929;49.062;10.338;2023-06-10T01:43:54;5.35;;;3.45;;
76995;SDS011;65929;49.062;10.338;2023-06-10T01:44:55;4.72;;;3.13;;
76995;SDS011;65929;49.062;10.338;2023-06-10T01:45:56;4.22;;;3.25;;
76995;SDS011;65929;49.062;10.338;2023-06-10T01:46:57;4.53;;;3.40;;
76995;SDS011;65929;49.062;10.338;2023-06-10T01:47:58;3.58;;;3.00;;
76995;SDS011;65929;49.062;10.338;2023-06-10T01:48:59;3.42;;;3.05;;
76995;SDS011;65929;49.062;10.338;2023-06-10T01:50:00;4.57;;;3.22;;
76995;SDS011;65929;49.062;10.338;2023-06-10T01:51:01;4.15;;;2.90;;
76995;SDS011;65929;49.062;10.338;2023-06-10T01:52:04;3.63;;;2.85;;
76995;SDS011;65929;49.062;10.338;2023-06-10T01:53:06;5.15;;;3.42;;
76995;SDS011;65929;49.062;10.338;2023-06-10T01:54:07;5.03;;;3.25;;
76995;SDS011;65929;49.062;10.338;2023-06-10T01:55:08;3.78;;;2.88;;
76995;SDS011;65929;49.062;10.338;2023-06-10T01:56:09;5.07;;;3.17;;
76995;SDS011;65929;49.062;10.338;2023-06-10T01:57:10;5.07;;;3.33;;
76995;SDS011;65929;49.062;10.338;2023-06-10T01:58:11;3.65;;;3.35;;
76995;SDS011;65929;49.062;10.338;2023-06-10T01:59:12;3.97;;;3.08;;
76995;SDS011;65929;49.062;10.338;2023-06-10T02:00:13;4.63;;;3.10;;
76995;SDS011;65929;49.062;10.338;2023-06-10T02:01:15;4.88;;;3.47;;
76995;SDS011;65929;49.062;10.338;2023-06-10T02:02:16;4.68;;;3.40;;
76995;SDS011;65929;49.062;10.338;2023-06-10T02:03:17;4.60;;;3.42;;
76995;SDS011;65929;49.062;10.338;2023-06-10T02:04:18;4.95;;;3.47;;
76995;SDS011;65929;49.062;10.338;2023-06-10T02:05:19;5.13;;;3.50;;
76995;SDS011;65929;49.062;10.338;2023-06-10T02:06:20;5.32;;;3.53;;
76995;SDS011;65929;49.062;10.338;2023-06-10T02:07:23;5.18;;;3.05;;
76995;SDS011;65929;49.062;10.338;2023-06-10T02:08:23;4.32;;;3.25;;
76995;SDS011;65929;49.062;10.338;2023-06-10T02:09:24;4.32;;;3.40;;
76995;SDS011;65929;49.062;10.338;2023-06-10T02:10:25;4.60;;;4.03;;
76995;SDS011;65929;49.062;10.338;2023-06-10T02:11:26;4.50;;;3.45;;
76995;SDS011;65929;49.062;10.338;2023-06-10T02:12:27;5.05;;;3.70;;
76995;SDS011;65929;49.062;10.338;2023-06-10T02:13:28;5.03;;;3.88;;
76995;SDS011;65929;49.062;10.338;2023-06-10T02:14:29;4.90;;;3.92;;
76995;SDS011;65929;49.062;10.338;2023-06-10T02:15:32;4.50;;;3.33;;
76995;SDS011;65929;49.062;10.338;2023-06-10T02:16:33;4.80;;;3.65;;
76995;SDS011;65929;49.062;10.338;2023-06-10T02:17:34;5.28;;;3.78;;
76995;SDS011;65929;49.062;10.338;2023-06-10T02:18:36;5.03;;;3.25;;
76995;SDS011;65929;49.062;10.338;2023-06-10T02:19:37;5.00;;;3.78;;
76995;SDS011;65929;49.062;10.338;2023-06-10T02:20:42;5.20;;;3.50;;
76995;SDS011;65929;49.062;10.338;2023-06-10T02:21:43;5.00;;;4.47;;
76995;SDS011;65929;49.062;10.338;2023-06-10T02:22:46;5.03;;;3.45;;
76995;SDS011;65929;49.062;10.338;2023-06-10T02:23:47;5.70;;;3.67;;
76995;SDS011;65929;49.062;10.338;2023-06-10T02:24:48;4.65;;;3.80;;
76995;SDS011;65929;49.062;10.338;2023-06-10T02:25:49;4.32;;;3.28;;
76995;SDS011;65929;49.062;10.338;2023-06-10T02:26:50;5.95;;;3.80;;
76995;SDS011;65929;49.062;10.338;2023-06-10T02:27:51;4.43;;;3.35;;
76995;SDS011;65929;49.062;10.338;2023-06-10T02:28:52;4.05;;;3.47;;
76995;SDS011;65929;49.062;10.338;2023-06-10T02:29:53;5.68;;;3.40;;
76995;SDS011;65929;49.062;10.338;2023-06-10T02:30:54;4.75;;;4.00;;
76995;SDS011;65929;49.062;10.338;2023-06-10T02:31:57;6.03;;;3.67;;
76995;SDS011;65929;49.062;10.338;2023-06-10T02:32:58;5.20;;;3.40;;
76995;SDS011;65929;49.062;10.338;2023-06-10T02:33:59;5.45;;;3.90;;
76995;SDS011;65929;49.062;10.338;2023-06-10T02:35:00;5.35;;;3.53;;
76995;SDS011;65929;49.062;10.338;2023-06-10T02:36:01;4.68;;;3.92;;
76995;SDS011;65929;49.062;10.338;2023-06-10T02:37:03;5.45;;;4.07;;
76995;SDS011;65929;49.062;10.338;2023-06-10T02:38:05;4.80;;;3.78;;
76995;SDS011;65929;49.062;10.338;2023-06-10T02:39:06;5.75;;;3.42;;
76995;SDS011;65929;49.062;10.338;2023-06-10T02:40:08;4.45;;;3.50;;
76995;SDS011;65929;49.062;10.338;2023-06-10T02:41:10;5.97;;;3.90;;
76995;SDS011;65929;49.062;10.338;2023-06-10T02:42:11;3.88;;;2.97;;
76995;SDS011;65929;49.062;10.338;2023-06-10T02:43:12;5.30;;;3.80;;
76995;SDS011;65929;49.062;10.338;2023-06-10T02:44:13;4.93;;;3.60;;
76995;SDS011;65929;49.062;10.338;2023-06-10T02:45:14;4.57;;;3.67;;
76995;SDS011;65929;49.062;10.338;2023-06-10T02:46:15;4.45;;;3.65;;
76995;SDS011;65929;49.062;10.338;2023-06-10T02:47:16;4.53;;;3.85;;
76995;SDS011;65929;49.062;10.338;2023-06-10T02:48:17;5.55;;;3.60;;
76995;SDS011;65929;49.062;10.338;2023-06-10T02:49:18;4.97;;;3.88;;
76995;SDS011;65929;49.062;10.338;2023-06-10T02:50:19;4.50;;;3.60;;
76995;SDS011;65929;49.062;10.338;2023-06-10T02:51:20;5.05;;;3.85;;
76995;SDS011;65929;49.062;10.338;2023-06-10T02:52:21;4.63;;;3.67;;
76995;SDS011;65929;49.062;10.338;2023-06-10T02:53:24;5.03;;;3.65;;
76995;SDS011;65929;49.062;10.338;2023-06-10T02:54:25;5.70;;;4.00;;
76995;SDS011;65929;49.062;10.338;2023-06-10T02:55:26;4.68;;;3.85;;
76995;SDS011;65929;49.062;10.338;2023-06-10T02:56:27;5.93;;;3.67;;
76995;SDS011;65929;49.062;10.338;2023-06-10T02:57:28;4.90;;;3.60;;
76995;SDS011;65929;49.062;10.338;2023-06-10T02:58:29;5.05;;;3.38;;
76995;SDS011;65929;49.062;10.338;2023-06-10T02:59:30;5.00;;;3.60;;
76995;SDS011;65929;49.062;10.338;2023-06-10T03:00:32;5.05;;;3.78;;
76995;SDS011;65929;49.062;10.338;2023-06-10T03:01:33;6.10;;;3.90;;
76995;SDS011;65929;49.062;10.338;2023-06-10T03:02:36;5.97;;;4.00;;
76995;SDS011;65929;49.062;10.338;2023-06-10T03:03:38;4.32;;;3.78;;
76995;SDS011;65929;49.062;10.338;2023-06-10T03:04:42;5.15;;;3.55;;
76995;SDS011;65929;49.062;10.338;2023-06-10T03:05:43;6.00;;;4.05;;
76995;SDS011;65929;49.062;10.338;2023-06-10T03:06:44;4.70;;;3.55;;
76995;SDS011;65929;49.062;10.338;2023-06-10T03:07:45;7.63;;;3.97;;
76995;SDS011;65929;49.062;10.338;2023-06-10T03:08:48;6.82;;;3.90;;
76995;SDS011;65929;49.062;10.338;2023-06-10T03:09:49;6.13;;;3.90;;
76995;SDS011;65929;49.062;10.338;2023-06-10T03:10:51;6.30;;;4.15;;
76995;SDS011;65929;49.062;10.338;2023-06-10T03:11:51;6.50;;;4.20;;
76995;SDS011;65929;49.062;10.338;2023-06-10T03:12:52;6.03;;;4.18;;
76995;SDS011;65929;49.062;10.338;2023-06-10T03:13:54;5.05;;;3.75;;
76995;SDS011;65929;49.062;10.338;2023-06-10T03:14:55;6.97;;;4.32;;
76995;SDS011;65929;49.062;10.338;2023-06-10T03:15:56;5.13;;;3.60;;
76995;SDS011;65929;49.062;10.338;2023-06-10T03:16:57;6.13;;;4.30;;
76995;SDS011;65929;49.062;10.338;2023-06-10T03:17:58;4.97;;;3.85;;
76995;SDS011;65929;49.062;10.338;2023-06-10T03:19:00;5.45;;;4.10;;
76995;SDS011;65929;49.062;10.338;2023-06-10T03:20:01;5.75;;;3.92;;
76995;SDS011;65929;49.062;10.338;2023-06-10T03:21:03;5.43;;;3.72;;
76995;SDS011;65929;49.062;10.338;2023-06-10T03:22:07;5.38;;;3.95;;
76995;SDS011;65929;49.062;10.338;2023-06-10T03:23:10;4.90;;;3.80;;
76995;SDS011;65929;49.062;10.338;2023-06-10T03:24:12;5.13;;;3.85;;
76995;SDS011;65929;49.062;10.338;2023-06-10T03:25:13;6.40;;;4.38;;
76995;SDS011;65929;49.062;10.338;2023-06-10T03:26:14;5.25;;;4.13;;
76995;SDS011;65929;49.062;10.338;2023-06-10T03:27:16;5.35;;;4.00;;
76995;SDS011;65929;49.062;10.338;2023-06-10T03:28:17;6.25;;;4.18;;
76995;SDS011;65929;49.062;10.338;2023-06-10T03:29:18;6.65;;;4.10;;
76995;SDS011;65929;49.062;10.338;2023-06-10T03:30:19;5.45;;;4.35;;
76995;SDS011;65929;49.062;10.338;2023-06-10T03:31:20;5.80;;;4.28;;
76995;SDS011;65929;49.062;10.338;2023-06-10T03:32:21;5.60;;;4.00;;
76995;SDS011;65929;49.062;10.338;2023-06-10T03:33:22;6.32;;;3.90;;
76995;SDS011;65929;49.062;10.338;2023-06-10T03:34:23;6.72;;;4.63;;
76995;SDS011;65929;49.062;10.338;2023-06-10T03:35:24;6.68;;;3.83;;
76995;SDS011;65929;49.062;10.338;2023-06-10T03:36:26;5.55;;;3.78;;
76995;SDS011;65929;49.062;10.338;2023-06-10T03:37:29;5.00;;;3.90;;
76995;SDS011;65929;49.062;10.338;2023-06-10T03:38:30;6.22;;;4.10;;
76995;SDS011;65929;49.062;10.338;2023-06-10T03:39:32;5.25;;;3.70;;
76995;SDS011;65929;49.062;10.338;2023-06-10T03:40:33;7.70;;;4.43;;
76995;SDS011;65929;49.062;10.338;2023-06-10T03:41:34;5.78;;;4.18;;
76995;SDS011;65929;49.062;10.338;2023-06-10T03:42:35;6.32;;;4.50;;
76995;SDS011;65929;49.062;10.338;2023-06-10T03:43:37;7.32;;;4.68;;
76995;SDS011;65929;49.062;10.338;2023-06-10T03:44:40;6.78;;;4.65;;
76995;SDS011;65929;49.062;10.338;2023-06-10T03:45:41;6.47;;;4.22;;
76995;SDS011;65929;49.062;10.338;2023-06-10T03:46:42;6.50;;;4.13;;
76995;SDS011;65929;49.062;10.338;2023-06-10T03:47:43;6.30;;;4.30;;
76995;SDS011;65929;49.062;10.338;2023-06-10T03:48:45;5.72;;;4.07;;
76995;SDS011;65929;49.062;10.338;2023-06-10T03:49:46;6.65;;;4.38;;
76995;SDS011;65929;49.062;10.338;2023-06-10T03:50:47;6.13;;;4.45;;
76995;SDS011;65929;49.062;10.338;2023-06-10T03:51:50;5.70;;;4.25;;
76995;SDS011;65929;49.062;10.338;2023-06-10T03:52:51;6.32;;;4.65;;
76995;SDS011;65929;49.062;10.338;2023-06-10T03:53:52;8.23;;;4.50;;
76995;SDS011;65929;49.062;10.338;2023-06-10T03:54:55;7.32;;;4.85;;
76995;SDS011;65929;49.062;10.338;2023-06-10T03:55:56;6.80;;;4.68;;
76995;SDS011;65929;49.062;10.338;2023-06-10T03:56:57;5.85;;;4.90;;
76995;SDS011;65929;49.062;10.338;2023-06-10T03:57:58;6.68;;;4.50;;
76995;SDS011;65929;49.062;10.338;2023-06-10T03:58:59;7.13;;;4.68;;
76995;SDS011;65929;49.062;10.338;2023-06-10T04:00:00;5.82;;;4.47;;
76995;SDS011;65929;49.062;10.338;2023-06-10T04:01:06;6.00;;;4.60;;
76995;SDS011;65929;49.062;10.338;2023-06-10T04:02:07;5.75;;;4.20;;
76995;SDS011;65929;49.062;10.338;2023-06-10T04:03:09;5.90;;;4.05;;
76995;SDS011;65929;49.062;10.338;2023-06-10T04:04:14;6.55;;;4.10;;
76995;SDS011;65929;49.062;10.338;2023-06-10T04:05:18;7.00;;;4.45;;
76995;SDS011;65929;49.062;10.338;2023-06-10T04:06:22;5.68;;;4.68;;
76995;SDS011;65929;49.062;10.338;2023-06-10T04:07:25;7.03;;;4.75;;
76995;SDS011;65929;49.062;10.338;2023-06-10T04:08:27;6.60;;;4.55;;
76995;SDS011;65929;49.062;10.338;2023-06-10T04:09:28;5.68;;;4.80;;
76995;SDS011;65929;49.062;10.338;2023-06-10T04:10:30;6.25;;;4.68;;
76995;SDS011;65929;49.062;10.338;2023-06-10T04:11:31;6.25;;;4.38;;
76995;SDS011;65929;49.062;10.338;2023-06-10T04:12:32;5.82;;;4.32;;
76995;SDS011;65929;49.062;10.338;2023-06-10T04:13:33;6.93;;;4.95;;
76995;SDS011;65929;49.062;10.338;2023-06-10T04:14:34;7.90;;;5.13;;
76995;SDS011;65929;49.062;10.338;2023-06-10T04:15:36;6.40;;;4.80;;
76995;SDS011;65929;49.062;10.338;2023-06-10T04:16:37;6.78;;;5.15;;
76995;SDS011;65929;49.062;10.338;2023-06-10T04:17:38;6.47;;;4.35;;
76995;SDS011;65929;49.062;10.338;2023-06-10T04:18:40;7.50;;;4.78;;
76995;SDS011;65929;49.062;10.338;2023-06-10T04:19:42;5.88;;;4.68;;
76995;SDS011;65929;49.062;10.338;2023-06-10T04:20:43;6.57;;;4.65;;
76995;SDS011;65929;49.062;10.338;2023-06-10T04:21:45;7.28;;;4.97;;
76995;SDS011;65929;49.062;10.338;2023-06-10T04:22:45;7.50;;;4.65;;
76995;SDS011;65929;49.062;10.338;2023-06-10T04:23:46;8.32;;;4.95;;
76995;SDS011;65929;49.062;10.338;2023-06-10T04:24:48;7.07;;;5.07;;
76995;SDS011;65929;49.062;10.338;2023-06-10T04:25:50;9.20;;;5.40;;
76995;SDS011;65929;49.062;10.338;2023-06-10T04:26:51;7.30;;;5.00;;
76995;SDS011;65929;49.062;10.338;2023-06-10T04:27:52;6.97;;;5.35;;
76995;SDS011;65929;49.062;10.338;2023-06-10T04:28:53;7.65;;;5.25;;
76995;SDS011;65929;49.062;10.338;2023-06-10T04:29:54;6.63;;;4.72;;
76995;SDS011;65929;49.062;10.338;2023-06-10T04:30:55;7.50;;;4.85;;
76995;SDS011;65929;49.062;10.338;2023-06-10T04:31:56;6.47;;;5.07;;
76995;SDS011;65929;49.062;10.338;2023-06-10T04:32:58;7.05;;;4.88;;
76995;SDS011;65929;49.062;10.338;2023-06-10T04:33:59;6.60;;;4.60;;
76995;SDS011;65929;49.062;10.338;2023-06-10T04:35:00;6.57;;;5.22;;
76995;SDS011;65929;49.062;10.338;2023-06-10T04:36:02;6.47;;;5.13;;
76995;SDS011;65929;49.062;10.338;2023-06-10T04:37:03;7.38;;;5.03;;
76995;SDS011;65929;49.062;10.338;2023-06-10T04:38:04;7.95;;;4.57;;
76995;SDS011;65929;49.062;10.338;2023-06-10T04:39:05;6.97;;;4.85;;
76995;SDS011;65929;49.062;10.338;2023-06-10T04:40:07;7.05;;;4.60;;
76995;SDS011;65929;49.062;10.338;2023-06-10T04:41:10;8.27;;;5.20;;
76995;SDS011;65929;49.062;10.338;2023-06-10T04:42:11;6.95;;;4.93;;
76995;SDS011;65929;49.062;10.338;2023-06-10T04:43:12;8.00;;;5.00;;
76995;SDS011;65929;49.062;10.338;2023-06-10T04:44:13;8.30;;;4.85;;
76995;SDS011;65929;49.062;10.338;2023-06-10T04:45:14;8.18;;;4.82;;
76995;SDS011;65929;49.062;10.338;2023-06-10T04:46:15;6.18;;;4.82;;
76995;SDS011;65929;49.062;10.338;2023-06-10T04:47:16;6.60;;;4.30;;
76995;SDS011;65929;49.062;10.338;2023-06-10T04:48:17;7.18;;;4.78;;
76995;SDS011;65929;49.062;10.338;2023-06-10T04:49:18;5.72;;;4.55;;
76995;SDS011;65929;49.062;10.338;2023-06-10T04:50:19;5.53;;;4.38;;
76995;SDS011;65929;49.062;10.338;2023-06-10T04:51:20;6.45;;;4.35;;
76995;SDS011;65929;49.062;10.338;2023-06-10T04:52:21;7.00;;;5.05;;
76995;SDS011;65929;49.062;10.338;2023-06-10T04:53:22;7.50;;;5.22;;
76995;SDS011;65929;49.062;10.338;2023-06-10T04:54:23;6.10;;;4.70;;
76995;SDS011;65929;49.062;10.338;2023-06-10T04:55:24;7.35;;;4.72;;
76995;SDS011;65929;49.062;10.338;2023-06-10T04:56:27;7.00;;;4.88;;
76995;SDS011;65929;49.062;10.338;2023-06-10T04:57:29;8.23;;;5.13;;
76995;SDS011;65929;49.062;10.338;2023-06-10T04:58:30;7.07;;;4.57;;
76995;SDS011;65929;49.062;10.338;2023-06-10T04:59:31;6.20;;;4.80;;
76995;SDS011;65929;49.062;10.338;2023-06-10T05:01:34;6.95;;;4.95;;
76995;SDS011;65929;49.062;10.338;2023-06-10T05:02:35;5.97;;;5.00;;
76995;SDS011;65929;49.062;10.338;2023-06-10T05:03:36;7.10;;;4.90;;
76995;SDS011;65929;49.062;10.338;2023-06-10T05:04:37;7.30;;;4.85;;
76995;SDS011;65929;49.062;10.338;2023-06-10T05:05:38;8.27;;;5.05;;
76995;SDS011;65929;49.062;10.338;2023-06-10T05:06:40;6.97;;;5.05;;
76995;SDS011;65929;49.062;10.338;2023-06-10T05:07:41;7.45;;;4.65;;
76995;SDS011;65929;49.062;10.338;2023-06-10T05:08:42;6.35;;;4.53;;
76995;SDS011;65929;49.062;10.338;2023-06-10T05:09:43;6.55;;;5.40;;
76995;SDS011;65929;49.062;10.338;2023-06-10T05:10:44;6.85;;;5.20;;
76995;SDS011;65929;49.062;10.338;2023-06-10T05:11:46;7.40;;;4.93;;
76995;SDS011;65929;49.062;10.338;2023-06-10T05:12:47;7.28;;;5.20;;
76995;SDS011;65929;49.062;10.338;2023-06-10T05:13:48;7.35;;;5.20;;
76995;SDS011;65929;49.062;10.338;2023-06-10T05:14:49;6.13;;;4.45;;
76995;SDS011;65929;49.062;10.338;2023-06-10T05:15:50;7.60;;;4.70;;
76995;SDS011;65929;49.062;10.338;2023-06-10T05:16:51;7.28;;;4.80;;
76995;SDS011;65929;49.062;10.338;2023-06-10T05:17:53;7.13;;;5.40;;
76995;SDS011;65929;49.062;10.338;2023-06-10T05:18:56;7.25;;;5.22;;
76995;SDS011;65929;49.062;10.338;2023-06-10T05:19:57;6.28;;;5.00;;
76995;SDS011;65929;49.062;10.338;2023-06-10T05:20:58;7.35;;;4.85;;
76995;SDS011;65929;49.062;10.338;2023-06-10T05:21:59;5.53;;;4.70;;
76995;SDS011;65929;49.062;10.338;2023-06-10T05:23:00;6.22;;;4.85;;
76995;SDS011;65929;49.062;10.338;2023-06-10T05:24:01;7.95;;;5.07;;
76995;SDS011;65929;49.062;10.338;2023-06-10T05:25:02;6.82;;;5.07;;
76995;SDS011;65929;49.062;10.338;2023-06-10T05:26:04;7.60;;;4.95;;
76995;SDS011;65929;49.062;10.338;2023-06-10T05:27:06;6.25;;;4.57;;
76995;SDS011;65929;49.062;10.338;2023-06-10T05:28:08;6.72;;;4.45;;
76995;SDS011;65929;49.062;10.338;2023-06-10T05:29:10;6.85;;;4.78;;
76995;SDS011;65929;49.062;10.338;2023-06-10T05:30:11;5.78;;;4.63;;
76995;SDS011;65929;49.062;10.338;2023-06-10T05:31:12;6.05;;;4.60;;
76995;SDS011;65929;49.062;10.338;2023-06-10T05:32:13;7.32;;;4.75;;
76995;SDS011;65929;49.062;10.338;2023-06-10T05:33:14;5.97;;;4.35;;
76995;SDS011;65929;49.062;10.338;2023-06-10T05:34:15;8.57;;;5.35;;
76995;SDS011;65929;49.062;10.338;2023-06-10T05:35:17;8.20;;;5.53;;
76995;SDS011;65929;49.062;10.338;2023-06-10T05:36:18;8.20;;;4.90;;
76995;SDS011;65929;49.062;10.338;2023-06-10T05:37:18;8.00;;;4.75;;
76995;SDS011;65929;49.062;10.338;2023-06-10T05:38:20;8.00;;;5.15;;
76995;SDS011;65929;49.062;10.338;2023-06-10T05:39:21;6.15;;;4.80;;
76995;SDS011;65929;49.062;10.338;2023-06-10T05:40:22;7.80;;;4.88;;
76995;SDS011;65929;49.062;10.338;2023-06-10T05:41:23;6.22;;;4.85;;
76995;SDS011;65929;49.062;10.338;2023-06-10T05:42:27;8.45;;;4.82;;
76995;SDS011;65929;49.062;10.338;2023-06-10T05:43:27;6.72;;;4.90;;
76995;SDS011;65929;49.062;10.338;2023-06-10T05:44:31;8.30;;;5.22;;
76995;SDS011;65929;49.062;10.338;2023-06-10T05:45:32;6.93;;;4.93;;
76995;SDS011;65929;49.062;10.338;2023-06-10T05:46:33;7.80;;;5.25;;
76995;SDS011;65929;49.062;10.338;2023-06-10T05:47:34;6.88;;;4.80;;
76995;SDS011;65929;49.062;10.338;2023-06-10T05:48:35;7.25;;;5.30;;
76995;SDS011;65929;49.062;10.338;2023-06-10T05:49:36;7.40;;;4.53;;
76995;SDS011;65929;49.062;10.338;2023-06-10T05:50:39;7.20;;;4.63;;
76995;SDS011;65929;49.062;10.338;2023-06-10T05:51:42;7.18;;;4.90;;
76995;SDS011;65929;49.062;10.338;2023-06-10T05:52:43;5.20;;;4.60;;
76995;SDS011;65929;49.062;10.338;2023-06-10T05:53:44;6.32;;;4.93;;
76995;SDS011;65929;49.062;10.338;2023-06-10T05:54:46;8.15;;;4.70;;
76995;SDS011;65929;49.062;10.338;2023-06-10T05:55:47;6.85;;;4.70;;
76995;SDS011;65929;49.062;10.338;2023-06-10T05:56:48;6.13;;;4.65;;
76995;SDS011;65929;49.062;10.338;2023-06-10T05:57:59;6.50;;;4.88;;
76995;SDS011;65929;49.062;10.338;2023-06-10T05:59:00;5.40;;;4.45;;
76995;SDS011;65929;49.062;10.338;2023-06-10T06:00:01;6.15;;;4.63;;
76995;SDS011;65929;49.062;10.338;2023-06-10T06:01:03;6.03;;;4.07;;
76995;SDS011;65929;49.062;10.338;2023-06-10T06:02:07;6.47;;;4.25;;
76995;SDS011;65929;49.062;10.338;2023-06-10T06:03:08;6.38;;;4.72;;
76995;SDS011;65929;49.062;10.338;2023-06-10T06:04:12;6.88;;;4.68;;
76995;SDS011;65929;49.062;10.338;2023-06-10T06:05:13;6.07;;;4.57;;
76995;SDS011;65929;49.062;10.338;2023-06-10T06:06:14;5.65;;;4.55;;
76995;SDS011;65929;49.062;10.338;2023-06-10T06:07:16;6.57;;;4.57;;